Search for airport 
image banner adimage banner adimage banner ad
image banner ad

46IA - Todd Field

Located in Ankeny, United States

ICAO - 46IA, IATA -

Data provided by Airmate  

General information

Coordinates: N41°45'21" W93°33'60"
Elevation is 965 feet MSL.
Magnetic variation is 04° East
View others Airports in Iowa

Operational data

Special qualification required
Current time UTC:
Current local time:
Weather at : KIKV - Ankeny Rgnl ( 7 km )
METAR: KIKV 150835Z AUTO 03004KT 10SM CLR 15/10 A3010 RMK AO2
View NOTAMs / SUP AIP / TFR affecting this airport [VIEW]
Communications frequencies: [VIEW]

Runways:

RWY identifierQFULength (ft)Width (ft)SurfaceLDA (ft)
17260080ASPH
35260080ASPH

Airport contact information

Address: Ankeny United States

Satellite view of 46IA